sensor_id;sensor_type;location;lat;lon;timestamp;temperature;humidity
66920;DHT22;53831;52.090;17.026;2023-05-10T00:00:02;8.90;99.90
66920;DHT22;53831;52.090;17.026;2023-05-10T00:01:13;8.90;99.90
66920;DHT22;53831;52.090;17.026;2023-05-10T00:02:14;8.90;99.90
66920;DHT22;53831;52.090;17.026;2023-05-10T00:03:14;8.80;99.90
66920;DHT22;53831;52.090;17.026;2023-05-10T00:04:15;8.80;99.90
66920;DHT22;53831;52.090;17.026;2023-05-10T00:05:15;8.80;99.90
66920;DHT22;53831;52.090;17.026;2023-05-10T00:06:16;8.80;99.90
66920;DHT22;53831;52.090;17.026;2023-05-10T00:07:17;8.80;99.90
66920;DHT22;53831;52.090;17.026;2023-05-10T00:08:17;8.80;99.90
66920;DHT22;53831;52.090;17.026;2023-05-10T00:09:18;8.80;99.90
66920;DHT22;53831;52.090;17.026;2023-05-10T00:10:18;8.80;99.90
66920;DHT22;53831;52.090;17.026;2023-05-10T00:11:19;8.80;99.90
66920;DHT22;53831;52.090;17.026;2023-05-10T00:12:20;8.80;99.90
66920;DHT22;53831;52.090;17.026;2023-05-10T00:13:21;8.80;99.90
66920;DHT22;53831;52.090;17.026;2023-05-10T00:14:22;8.80;99.90
66920;DHT22;53831;52.090;17.026;2023-05-10T00:15:23;8.80;99.90
66920;DHT22;53831;52.090;17.026;2023-05-10T00:16:23;8.70;99.90
66920;DHT22;53831;52.090;17.026;2023-05-10T00:17:24;8.70;99.90
66920;DHT22;53831;52.090;17.026;2023-05-10T00:18:24;8.70;99.90
66920;DHT22;53831;52.090;17.026;2023-05-10T00:19:25;8.60;99.90
66920;DHT22;53831;52.090;17.026;2023-05-10T00:20:26;8.60;99.90
66920;DHT22;53831;52.090;17.026;2023-05-10T00:21:26;8.60;99.90
66920;DHT22;53831;52.090;17.026;2023-05-10T00:22:28;8.50;99.90
66920;DHT22;53831;52.090;17.026;2023-05-10T00:23:29;8.50;99.90
66920;DHT22;53831;52.090;17.026;2023-05-10T00:24:29;8.50;99.90
66920;DHT22;53831;52.090;17.026;2023-05-10T00:25:30;8.50;99.90
66920;DHT22;53831;52.090;17.026;2023-05-10T00:26:30;8.40;99.90
66920;DHT22;53831;52.090;17.026;2023-05-10T00:27:31;8.40;99.90
66920;DHT22;53831;52.090;17.026;2023-05-10T00:28:31;8.30;99.90
66920;DHT22;53831;52.090;17.026;2023-05-10T00:29:32;8.30;99.90
66920;DHT22;53831;52.090;17.026;2023-05-10T00:30:34;8.30;99.90
66920;DHT22;53831;52.090;17.026;2023-05-10T00:31:35;8.20;99.90
66920;DHT22;53831;52.090;17.026;2023-05-10T00:32:36;8.20;99.90
66920;DHT22;53831;52.090;17.026;2023-05-10T00:33:37;8.20;99.90
66920;DHT22;53831;52.090;17.026;2023-05-10T00:34:37;8.20;99.90
66920;DHT22;53831;52.090;17.026;2023-05-10T00:35:38;8.20;99.90
66920;DHT22;53831;52.090;17.026;2023-05-10T00:36:38;8.20;99.90
66920;DHT22;53831;52.090;17.026;2023-05-10T00:37:41;8.20;99.90
66920;DHT22;53831;52.090;17.026;2023-05-10T00:38:41;8.20;99.90
66920;DHT22;53831;52.090;17.026;2023-05-10T00:39:42;8.20;99.90
66920;DHT22;53831;52.090;17.026;2023-05-10T00:40:43;8.20;99.90
66920;DHT22;53831;52.090;17.026;2023-05-10T00:41:48;8.20;99.90
66920;DHT22;53831;52.090;17.026;2023-05-10T00:42:49;8.20;99.90
66920;DHT22;53831;52.090;17.026;2023-05-10T00:43:50;8.20;99.90
66920;DHT22;53831;52.090;17.026;2023-05-10T00:44:50;8.20;99.90
66920;DHT22;53831;52.090;17.026;2023-05-10T00:45:51;8.10;99.90
66920;DHT22;53831;52.090;17.026;2023-05-10T00:46:51;8.20;99.90
66920;DHT22;53831;52.090;17.026;2023-05-10T00:47:53;8.10;99.90
66920;DHT22;53831;52.090;17.026;2023-05-10T00:48:55;8.20;99.90
66920;DHT22;53831;52.090;17.026;2023-05-10T00:49:56;8.10;99.90
66920;DHT22;53831;52.090;17.026;2023-05-10T00:50:57;8.10;99.90
66920;DHT22;53831;52.090;17.026;2023-05-10T00:51:57;8.10;99.90
66920;DHT22;53831;52.090;17.026;2023-05-10T00:52:59;8.00;99.90
66920;DHT22;53831;52.090;17.026;2023-05-10T00:54:00;8.00;99.90
66920;DHT22;53831;52.090;17.026;2023-05-10T00:55:00;8.00;99.90
66920;DHT22;53831;52.090;17.026;2023-05-10T00:56:01;8.00;99.90
66920;DHT22;53831;52.090;17.026;2023-05-10T00:57:03;8.00;99.90
66920;DHT22;53831;52.090;17.026;2023-05-10T00:58:04;7.90;99.90
66920;DHT22;53831;52.090;17.026;2023-05-10T00:59:05;7.90;99.90
66920;DHT22;53831;52.090;17.026;2023-05-10T01:00:06;7.90;99.90
66920;DHT22;53831;52.090;17.026;2023-05-10T01:01:06;7.90;99.90
66920;DHT22;53831;52.090;17.026;2023-05-10T01:02:08;7.90;99.90
66920;DHT22;53831;52.090;17.026;2023-05-10T01:03:09;7.80;99.90
66920;DHT22;53831;52.090;17.026;2023-05-10T01:04:10;7.80;99.90
66920;DHT22;53831;52.090;17.026;2023-05-10T01:05:13;7.80;99.90
66920;DHT22;53831;52.090;17.026;2023-05-10T01:06:14;7.80;99.90
66920;DHT22;53831;52.090;17.026;2023-05-10T01:07:14;7.80;99.90
66920;DHT22;53831;52.090;17.026;2023-05-10T01:08:15;7.70;99.90
66920;DHT22;53831;52.090;17.026;2023-05-10T01:09:16;7.70;99.90
66920;DHT22;53831;52.090;17.026;2023-05-10T01:10:16;7.70;99.90
66920;DHT22;53831;52.090;17.026;2023-05-10T01:11:17;7.60;99.90
66920;DHT22;53831;52.090;17.026;2023-05-10T01:12:17;7.60;99.90
66920;DHT22;53831;52.090;17.026;2023-05-10T01:13:18;7.60;99.90
66920;DHT22;53831;52.090;17.026;2023-05-10T01:14:23;7.60;99.90
66920;DHT22;53831;52.090;17.026;2023-05-10T01:15:25;7.50;99.90
66920;DHT22;53831;52.090;17.026;2023-05-10T01:16:26;7.50;99.90
66920;DHT22;53831;52.090;17.026;2023-05-10T01:17:27;7.40;99.90
66920;DHT22;53831;52.090;17.026;2023-05-10T01:18:27;7.40;99.90
66920;DHT22;53831;52.090;17.026;2023-05-10T01:19:29;7.40;99.90
66920;DHT22;53831;52.090;17.026;2023-05-10T01:20:34;7.40;99.90
66920;DHT22;53831;52.090;17.026;2023-05-10T01:21:43;7.40;99.90
66920;DHT22;53831;52.090;17.026;2023-05-10T01:22:51;7.30;99.90
66920;DHT22;53831;52.090;17.026;2023-05-10T01:33:17;7.10;99.90
66920;DHT22;53831;52.090;17.026;2023-05-10T01:34:23;7.10;99.90
66920;DHT22;53831;52.090;17.026;2023-05-10T01:38:44;7.10;99.90
66920;DHT22;53831;52.090;17.026;2023-05-10T01:39:50;7.10;99.90
66920;DHT22;53831;52.090;17.026;2023-05-10T01:41:01;7.10;99.90
66920;DHT22;53831;52.090;17.026;2023-05-10T01:43:08;7.10;99.90
66920;DHT22;53831;52.090;17.026;2023-05-10T01:44:18;7.00;99.90
66920;DHT22;53831;52.090;17.026;2023-05-10T01:46:45;7.00;99.90
66920;DHT22;53831;52.090;17.026;2023-05-10T01:47:49;6.90;99.90
66920;DHT22;53831;52.090;17.026;2023-05-10T01:48:51;6.90;99.90
66920;DHT22;53831;52.090;17.026;2023-05-10T01:49:53;6.90;99.90
66920;DHT22;53831;52.090;17.026;2023-05-10T01:50:55;6.90;99.90
66920;DHT22;53831;52.090;17.026;2023-05-10T01:51:59;6.80;99.90
66920;DHT22;53831;52.090;17.026;2023-05-10T01:53:00;6.90;99.90
66920;DHT22;53831;52.090;17.026;2023-05-10T01:54:02;6.90;99.90
66920;DHT22;53831;52.090;17.026;2023-05-10T01:55:07;6.90;99.90
66920;DHT22;53831;52.090;17.026;2023-05-10T01:56:09;6.90;99.90
66920;DHT22;53831;52.090;17.026;2023-05-10T01:57:11;6.90;99.90
66920;DHT22;53831;52.090;17.026;2023-05-10T01:58:16;6.80;99.90
66920;DHT22;53831;52.090;17.026;2023-05-10T01:59:18;6.80;99.90
66920;DHT22;53831;52.090;17.026;2023-05-10T02:00:19;6.80;99.90
66920;DHT22;53831;52.090;17.026;2023-05-10T02:01:20;6.80;99.90
66920;DHT22;53831;52.090;17.026;2023-05-10T02:02:21;6.80;99.90
66920;DHT22;53831;52.090;17.026;2023-05-10T02:03:23;6.80;99.90
66920;DHT22;53831;52.090;17.026;2023-05-10T02:04:25;6.80;99.90
66920;DHT22;53831;52.090;17.026;2023-05-10T02:05:27;6.80;99.90
66920;DHT22;53831;52.090;17.026;2023-05-10T02:06:29;6.80;99.90
66920;DHT22;53831;52.090;17.026;2023-05-10T02:07:31;6.80;99.90
66920;DHT22;53831;52.090;17.026;2023-05-10T02:08:32;6.70;99.90
66920;DHT22;53831;52.090;17.026;2023-05-10T02:09:34;6.70;99.90
66920;DHT22;53831;52.090;17.026;2023-05-10T02:10:35;6.70;99.90
66920;DHT22;53831;52.090;17.026;2023-05-10T02:11:37;6.70;99.90
66920;DHT22;53831;52.090;17.026;2023-05-10T02:12:41;6.70;99.90
66920;DHT22;53831;52.090;17.026;2023-05-10T02:13:42;6.70;99.90
66920;DHT22;53831;52.090;17.026;2023-05-10T02:14:44;6.70;99.90
66920;DHT22;53831;52.090;17.026;2023-05-10T02:15:46;6.70;99.90
66920;DHT22;53831;52.090;17.026;2023-05-10T02:16:48;6.60;99.90
66920;DHT22;53831;52.090;17.026;2023-05-10T02:17:51;6.60;99.90
66920;DHT22;53831;52.090;17.026;2023-05-10T02:18:53;6.60;99.90
66920;DHT22;53831;52.090;17.026;2023-05-10T02:19:54;6.60;99.90
66920;DHT22;53831;52.090;17.026;2023-05-10T02:20:56;6.60;99.90
66920;DHT22;53831;52.090;17.026;2023-05-10T02:21:58;6.60;99.90
66920;DHT22;53831;52.090;17.026;2023-05-10T02:23:00;6.50;99.90
66920;DHT22;53831;52.090;17.026;2023-05-10T02:24:01;6.50;99.90
66920;DHT22;53831;52.090;17.026;2023-05-10T02:25:03;6.40;99.90
66920;DHT22;53831;52.090;17.026;2023-05-10T02:26:03;6.40;99.90
66920;DHT22;53831;52.090;17.026;2023-05-10T02:27:06;6.40;99.90
66920;DHT22;53831;52.090;17.026;2023-05-10T02:28:07;6.40;99.90
66920;DHT22;53831;52.090;17.026;2023-05-10T02:29:10;6.40;99.90
66920;DHT22;53831;52.090;17.026;2023-05-10T02:30:12;6.40;99.90
66920;DHT22;53831;52.090;17.026;2023-05-10T02:31:13;6.40;99.90
66920;DHT22;53831;52.090;17.026;2023-05-10T02:32:14;6.40;99.90
66920;DHT22;53831;52.090;17.026;2023-05-10T02:33:15;6.40;99.90
66920;DHT22;53831;52.090;17.026;2023-05-10T02:34:16;6.40;99.90
66920;DHT22;53831;52.090;17.026;2023-05-10T02:35:18;6.40;99.90
66920;DHT22;53831;52.090;17.026;2023-05-10T02:36:19;6.30;99.90
66920;DHT22;53831;52.090;17.026;2023-05-10T02:37:21;6.40;99.90
66920;DHT22;53831;52.090;17.026;2023-05-10T02:38:22;6.40;99.90
66920;DHT22;53831;52.090;17.026;2023-05-10T02:39:24;6.30;99.90
66920;DHT22;53831;52.090;17.026;2023-05-10T02:40:25;6.30;99.90
66920;DHT22;53831;52.090;17.026;2023-05-10T02:41:26;6.40;99.90
66920;DHT22;53831;52.090;17.026;2023-05-10T02:42:28;6.40;99.90
66920;DHT22;53831;52.090;17.026;2023-05-10T02:43:29;6.40;99.90
66920;DHT22;53831;52.090;17.026;2023-05-10T02:44:31;6.40;99.90
66920;DHT22;53831;52.090;17.026;2023-05-10T02:45:32;6.40;99.90
66920;DHT22;53831;52.090;17.026;2023-05-10T02:46:35;6.40;99.90
66920;DHT22;53831;52.090;17.026;2023-05-10T02:47:37;6.40;99.90
66920;DHT22;53831;52.090;17.026;2023-05-10T02:48:38;6.30;99.90
66920;DHT22;53831;52.090;17.026;2023-05-10T02:49:38;6.40;99.90
66920;DHT22;53831;52.090;17.026;2023-05-10T02:50:39;6.40;99.90
66920;DHT22;53831;52.090;17.026;2023-05-10T02:51:47;6.40;99.90
66920;DHT22;53831;52.090;17.026;2023-05-10T02:52:52;6.40;99.90
66920;DHT22;53831;52.090;17.026;2023-05-10T02:53:54;6.40;99.90
66920;DHT22;53831;52.090;17.026;2023-05-10T02:54:55;6.40;99.90
66920;DHT22;53831;52.090;17.026;2023-05-10T02:55:59;6.40;99.90
66920;DHT22;53831;52.090;17.026;2023-05-10T02:57:03;6.30;99.90
66920;DHT22;53831;52.090;17.026;2023-05-10T02:58:04;6.20;99.90
66920;DHT22;53831;52.090;17.026;2023-05-10T02:59:05;6.20;99.90
66920;DHT22;53831;52.090;17.026;2023-05-10T03:00:06;6.20;99.90
66920;DHT22;53831;52.090;17.026;2023-05-10T03:01:07;6.20;99.90
66920;DHT22;53831;52.090;17.026;2023-05-10T03:02:08;6.20;99.90
66920;DHT22;53831;52.090;17.026;2023-05-10T03:03:09;6.20;99.90
66920;DHT22;53831;52.090;17.026;2023-05-10T03:04:09;6.20;99.90
66920;DHT22;53831;52.090;17.026;2023-05-10T03:05:13;6.20;99.90
66920;DHT22;53831;52.090;17.026;2023-05-10T03:06:13;6.20;99.90
66920;DHT22;53831;52.090;17.026;2023-05-10T03:07:14;6.10;99.90
66920;DHT22;53831;52.090;17.026;2023-05-10T03:08:15;6.10;99.90
66920;DHT22;53831;52.090;17.026;2023-05-10T03:09:16;6.10;99.90
66920;DHT22;53831;52.090;17.026;2023-05-10T03:10:17;6.10;99.90
66920;DHT22;53831;52.090;17.026;2023-05-10T03:13:54;6.10;99.90
66920;DHT22;53831;52.090;17.026;2023-05-10T03:16:16;6.10;99.90
66920;DHT22;53831;52.090;17.026;2023-05-10T03:18:22;6.00;99.90
66920;DHT22;53831;52.090;17.026;2023-05-10T03:19:24;6.00;99.90
66920;DHT22;53831;52.090;17.026;2023-05-10T03:20:31;6.00;99.90
66920;DHT22;53831;52.090;17.026;2023-05-10T03:21:35;6.00;99.90
66920;DHT22;53831;52.090;17.026;2023-05-10T03:22:40;6.00;99.90
66920;DHT22;53831;52.090;17.026;2023-05-10T03:23:44;6.00;99.90
66920;DHT22;53831;52.090;17.026;2023-05-10T03:24:46;6.00;99.90
66920;DHT22;53831;52.090;17.026;2023-05-10T03:25:48;6.00;99.90
66920;DHT22;53831;52.090;17.026;2023-05-10T03:26:51;6.00;99.90
66920;DHT22;53831;52.090;17.026;2023-05-10T03:27:53;6.00;99.90
66920;DHT22;53831;52.090;17.026;2023-05-10T03:28:54;6.00;99.90
66920;DHT22;53831;52.090;17.026;2023-05-10T03:29:55;6.00;99.90
66920;DHT22;53831;52.090;17.026;2023-05-10T03:30:57;6.00;99.90
66920;DHT22;53831;52.090;17.026;2023-05-10T03:31:58;6.00;99.90
66920;DHT22;53831;52.090;17.026;2023-05-10T03:33:03;6.00;99.90
66920;DHT22;53831;52.090;17.026;2023-05-10T03:34:04;6.00;99.90
66920;DHT22;53831;52.090;17.026;2023-05-10T03:35:09;6.00;99.90
66920;DHT22;53831;52.090;17.026;2023-05-10T03:36:10;6.00;99.90
66920;DHT22;53831;52.090;17.026;2023-05-10T03:37:11;6.00;99.90
66920;DHT22;53831;52.090;17.026;2023-05-10T03:38:12;6.00;99.90
66920;DHT22;53831;52.090;17.026;2023-05-10T03:39:13;6.00;99.90
66920;DHT22;53831;52.090;17.026;2023-05-10T03:40:13;6.00;99.90
66920;DHT22;53831;52.090;17.026;2023-05-10T03:41:15;6.00;99.90
66920;DHT22;53831;52.090;17.026;2023-05-10T03:42:16;6.00;99.90
66920;DHT22;53831;52.090;17.026;2023-05-10T03:43:18;6.10;99.90
66920;DHT22;53831;52.090;17.026;2023-05-10T03:44:19;6.10;99.90
66920;DHT22;53831;52.090;17.026;2023-05-10T03:45:19;6.10;99.90
66920;DHT22;53831;52.090;17.026;2023-05-10T03:46:20;6.10;99.90
66920;DHT22;53831;52.090;17.026;2023-05-10T03:47:21;6.10;99.90
66920;DHT22;53831;52.090;17.026;2023-05-10T03:48:21;6.20;99.90
66920;DHT22;53831;52.090;17.026;2023-05-10T03:49:22;6.20;99.90
66920;DHT22;53831;52.090;17.026;2023-05-10T03:50:23;6.20;99.90
66920;DHT22;53831;52.090;17.026;2023-05-10T03:51:24;6.20;99.90
66920;DHT22;53831;52.090;17.026;2023-05-10T03:52:28;6.20;99.90
66920;DHT22;53831;52.090;17.026;2023-05-10T03:53:29;6.20;99.90
66920;DHT22;53831;52.090;17.026;2023-05-10T03:54:30;6.20;99.90
66920;DHT22;53831;52.090;17.026;2023-05-10T03:55:31;6.30;99.90
66920;DHT22;53831;52.090;17.026;2023-05-10T03:56:35;6.30;99.90
66920;DHT22;53831;52.090;17.026;2023-05-10T03:57:35;6.40;99.90
66920;DHT22;53831;52.090;17.026;2023-05-10T03:58:36;6.40;99.90
66920;DHT22;53831;52.090;17.026;2023-05-10T03:59:36;6.40;99.90
66920;DHT22;53831;52.090;17.026;2023-05-10T04:00:37;6.40;99.90
66920;DHT22;53831;52.090;17.026;2023-05-10T04:01:44;6.50;99.90
66920;DHT22;53831;52.090;17.026;2023-05-10T04:02:44;6.50;99.90
66920;DHT22;53831;52.090;17.026;2023-05-10T04:03:50;6.50;99.90
66920;DHT22;53831;52.090;17.026;2023-05-10T04:04:50;6.60;99.90
66920;DHT22;53831;52.090;17.026;2023-05-10T04:06:01;6.60;99.90
66920;DHT22;53831;52.090;17.026;2023-05-10T04:07:02;6.70;99.90
66920;DHT22;53831;52.090;17.026;2023-05-10T04:08:03;6.70;99.90
66920;DHT22;53831;52.090;17.026;2023-05-10T04:09:04;6.70;99.90
66920;DHT22;53831;52.090;17.026;2023-05-10T04:10:05;6.80;99.90
66920;DHT22;53831;52.090;17.026;2023-05-10T04:11:10;6.80;99.90
66920;DHT22;53831;52.090;17.026;2023-05-10T04:12:11;6.80;99.90
66920;DHT22;53831;52.090;17.026;2023-05-10T04:13:12;6.80;99.90
66920;DHT22;53831;52.090;17.026;2023-05-10T04:14:13;6.90;99.90
66920;DHT22;53831;52.090;17.026;2023-05-10T04:15:13;6.90;99.90
66920;DHT22;53831;52.090;17.026;2023-05-10T04:16:14;7.00;99.90
66920;DHT22;53831;52.090;17.026;2023-05-10T04:17:14;7.00;99.90
66920;DHT22;53831;52.090;17.026;2023-05-10T04:18:15;7.00;99.90
66920;DHT22;53831;52.090;17.026;2023-05-10T04:19:16;7.00;99.90
66920;DHT22;53831;52.090;17.026;2023-05-10T04:20:17;7.10;99.90
66920;DHT22;53831;52.090;17.026;2023-05-10T04:21:18;7.10;99.90
66920;DHT22;53831;52.090;17.026;2023-05-10T04:22:19;7.10;99.90
66920;DHT22;53831;52.090;17.026;2023-05-10T04:23:20;7.20;99.90
66920;DHT22;53831;52.090;17.026;2023-05-10T04:24:21;7.20;99.90
66920;DHT22;53831;52.090;17.026;2023-05-10T04:25:21;7.30;99.90
66920;DHT22;53831;52.090;17.026;2023-05-10T04:26:22;7.30;99.90
66920;DHT22;53831;52.090;17.026;2023-05-10T04:27:23;7.30;99.90
66920;DHT22;53831;52.090;17.026;2023-05-10T04:28:23;7.40;99.90
66920;DHT22;53831;52.090;17.026;2023-05-10T04:29:24;7.40;99.90
66920;DHT22;53831;52.090;17.026;2023-05-10T04:30:24;7.50;99.90
66920;DHT22;53831;52.090;17.026;2023-05-10T04:31:25;7.50;99.90
66920;DHT22;53831;52.090;17.026;2023-05-10T04:32:26;7.60;99.90
66920;DHT22;53831;52.090;17.026;2023-05-10T04:33:26;7.60;99.90
66920;DHT22;53831;52.090;17.026;2023-05-10T04:34:27;7.70;99.90
66920;DHT22;53831;52.090;17.026;2023-05-10T04:35:28;7.80;99.90
66920;DHT22;53831;52.090;17.026;2023-05-10T04:36:28;7.80;99.90
66920;DHT22;53831;52.090;17.026;2023-05-10T04:37:29;7.80;99.90
66920;DHT22;53831;52.090;17.026;2023-05-10T04:38:29;7.90;99.90
66920;DHT22;53831;52.090;17.026;2023-05-10T04:39:30;7.90;99.90
66920;DHT22;53831;52.090;17.026;2023-05-10T04:40:31;8.00;99.90
66920;DHT22;53831;52.090;17.026;2023-05-10T04:41:32;8.10;99.90
66920;DHT22;53831;52.090;17.026;2023-05-10T04:42:32;8.10;99.90
66920;DHT22;53831;52.090;17.026;2023-05-10T04:43:33;8.20;99.90
66920;DHT22;53831;52.090;17.026;2023-05-10T04:44:34;8.20;99.90
66920;DHT22;53831;52.090;17.026;2023-05-10T04:45:34;8.20;99.90
66920;DHT22;53831;52.090;17.026;2023-05-10T04:46:35;8.30;99.90
66920;DHT22;53831;52.090;17.026;2023-05-10T04:47:36;8.40;99.90
66920;DHT22;53831;52.090;17.026;2023-05-10T04:48:37;8.40;99.90
66920;DHT22;53831;52.090;17.026;2023-05-10T04:49:37;8.50;99.90
66920;DHT22;53831;52.090;17.026;2023-05-10T04:50:38;8.60;99.90
66920;DHT22;53831;52.090;17.026;2023-05-10T04:51:39;8.60;99.90
66920;DHT22;53831;52.090;17.026;2023-05-10T04:52:40;8.60;99.90
66920;DHT22;53831;52.090;17.026;2023-05-10T04:53:40;8.60;99.90
66920;DHT22;53831;52.090;17.026;2023-05-10T04:54:41;8.70;99.90
66920;DHT22;53831;52.090;17.026;2023-05-10T04:55:41;8.70;99.90
66920;DHT22;53831;52.090;17.026;2023-05-10T04:56:42;8.70;99.90
66920;DHT22;53831;52.090;17.026;2023-05-10T04:57:43;8.80;99.90
66920;DHT22;53831;52.090;17.026;2023-05-10T04:58:43;8.80;99.90
66920;DHT22;53831;52.090;17.026;2023-05-10T04:59:44;8.90;99.90
66920;DHT22;53831;52.090;17.026;2023-05-10T05:00:44;8.90;99.90
66920;DHT22;53831;52.090;17.026;2023-05-10T05:01:45;9.00;99.90
66920;DHT22;53831;52.090;17.026;2023-05-10T05:02:46;9.00;99.90
66920;DHT22;53831;52.090;17.026;2023-05-10T05:03:46;9.00;99.90
66920;DHT22;53831;52.090;17.026;2023-05-10T05:04:47;9.10;99.90
66920;DHT22;53831;52.090;17.026;2023-05-10T05:05:47;9.20;99.90
66920;DHT22;53831;52.090;17.026;2023-05-10T05:06:48;9.20;99.90
66920;DHT22;53831;52.090;17.026;2023-05-10T05:07:49;9.20;99.90
66920;DHT22;53831;52.090;17.026;2023-05-10T05:08:49;9.20;99.90
66920;DHT22;53831;52.090;17.026;2023-05-10T05:09:50;9.30;99.90
66920;DHT22;53831;52.090;17.026;2023-05-10T05:10:50;9.30;99.90
66920;DHT22;53831;52.090;17.026;2023-05-10T05:11:51;9.30;99.90
66920;DHT22;53831;52.090;17.026;2023-05-10T05:12:52;9.40;99.90
66920;DHT22;53831;52.090;17.026;2023-05-10T05:13:52;9.50;99.90
66920;DHT22;53831;52.090;17.026;2023-05-10T05:14:53;9.50;99.90
66920;DHT22;53831;52.090;17.026;2023-05-10T05:15:53;9.60;99.90
66920;DHT22;53831;52.090;17.026;2023-05-10T05:16:54;9.60;99.90
66920;DHT22;53831;52.090;17.026;2023-05-10T05:17:56;9.60;99.90
66920;DHT22;53831;52.090;17.026;2023-05-10T05:18:56;9.70;99.90
66920;DHT22;53831;52.090;17.026;2023-05-10T05:19:57;9.70;99.90
66920;DHT22;53831;52.090;17.026;2023-05-10T05:20:58;9.70;99.90
66920;DHT22;53831;52.090;17.026;2023-05-10T05:21:58;9.80;99.90
66920;DHT22;53831;52.090;17.026;2023-05-10T05:22:59;9.80;99.90
66920;DHT22;53831;52.090;17.026;2023-05-10T05:23:59;9.80;99.90
66920;DHT22;53831;52.090;17.026;2023-05-10T05:25:00;9.90;99.90
66920;DHT22;53831;52.090;17.026;2023-05-10T05:26:02;9.90;99.90
66920;DHT22;53831;52.090;17.026;2023-05-10T05:27:03;10.00;99.90
66920;DHT22;53831;52.090;17.026;2023-05-10T05:28:04;10.00;99.90
66920;DHT22;53831;52.090;17.026;2023-05-10T05:29:04;10.10;99.90
66920;DHT22;53831;52.090;17.026;2023-05-10T05:30:05;10.20;99.90
66920;DHT22;53831;52.090;17.026;2023-05-10T05:31:06;10.20;99.90
66920;DHT22;53831;52.090;17.026;2023-05-10T05:32:10;10.20;99.90
66920;DHT22;53831;52.090;17.026;2023-05-10T05:33:13;10.30;99.90
66920;DHT22;53831;52.090;17.026;2023-05-10T05:34:14;10.30;99.90
66920;DHT22;53831;52.090;17.026;2023-05-10T05:35:14;10.40;99.90
66920;DHT22;53831;52.090;17.026;2023-05-10T05:36:17;10.50;99.90
66920;DHT22;53831;52.090;17.026;2023-05-10T05:37:18;10.50;99.90
66920;DHT22;53831;52.090;17.026;2023-05-10T05:38:19;10.50;99.90
66920;DHT22;53831;52.090;17.026;2023-05-10T05:39:19;10.60;99.90
66920;DHT22;53831;52.090;17.026;2023-05-10T05:40:20;10.70;99.90
66920;DHT22;53831;52.090;17.026;2023-05-10T05:41:20;10.70;99.90
66920;DHT22;53831;52.090;17.026;2023-05-10T05:42:21;10.70;99.90
66920;DHT22;53831;52.090;17.026;2023-05-10T05:43:22;10.80;99.90
66920;DHT22;53831;52.090;17.026;2023-05-10T05:44:22;10.90;99.90
66920;DHT22;53831;52.090;17.026;2023-05-10T05:45:23;10.90;99.90
66920;DHT22;53831;52.090;17.026;2023-05-10T05:46:24;11.00;99.90
66920;DHT22;53831;52.090;17.026;2023-05-10T05:47:24;11.00;99.90
66920;DHT22;53831;52.090;17.026;2023-05-10T05:48:25;11.10;99.90
66920;DHT22;53831;52.090;17.026;2023-05-10T05:49:26;11.10;99.90
66920;DHT22;53831;52.090;17.026;2023-05-10T05:50:26;11.20;99.90
66920;DHT22;53831;52.090;17.026;2023-05-10T05:51:27;11.20;99.90
66920;DHT22;53831;52.090;17.026;2023-05-10T05:52:27;11.20;99.90
66920;DHT22;53831;52.090;17.026;2023-05-10T05:53:28;11.30;99.90
66920;DHT22;53831;52.090;17.026;2023-05-10T05:54:28;11.30;99.90
66920;DHT22;53831;52.090;17.026;2023-05-10T05:55:29;11.30;99.90
66920;DHT22;53831;52.090;17.026;2023-05-10T05:56:31;11.40;99.90
66920;DHT22;53831;52.090;17.026;2023-05-10T05:57:32;11.40;99.90
66920;DHT22;53831;52.090;17.026;2023-05-10T05:58:33;11.50;99.90
66920;DHT22;53831;52.090;17.026;2023-05-10T05:59:33;11.50;99.90
66920;DHT22;53831;52.090;17.026;2023-05-10T06:00:34;11.60;99.90
66920;DHT22;53831;52.090;17.026;2023-05-10T06:01:34;11.60;99.90
66920;DHT22;53831;52.090;17.026;2023-05-10T06:02:35;11.60;99.90
66920;DHT22;53831;52.090;17.026;2023-05-10T06:03:36;11.60;99.90
66920;DHT22;53831;52.090;17.026;2023-05-10T06:04:36;11.70;99.90
66920;DHT22;53831;52.090;17.026;2023-05-10T06:05:37;11.70;99.90
66920;DHT22;53831;52.090;17.026;2023-05-10T06:06:38;11.80;99.90
66920;DHT22;53831;52.090;17.026;2023-05-10T06:07:38;11.80;99.90
66920;DHT22;53831;52.090;17.026;2023-05-10T06:08:40;11.80;99.90
66920;DHT22;53831;52.090;17.026;2023-05-10T06:09:40;11.90;99.90
66920;DHT22;53831;52.090;17.026;2023-05-10T06:10:41;11.90;99.90
66920;DHT22;53831;52.090;17.026;2023-05-10T06:11:41;11.90;99.90
66920;DHT22;53831;52.090;17.026;2023-05-10T06:12:42;11.90;99.90
66920;DHT22;53831;52.090;17.026;2023-05-10T06:13:43;12.00;99.90
66920;DHT22;53831;52.090;17.026;2023-05-10T06:14:43;12.00;99.90
66920;DHT22;53831;52.090;17.026;2023-05-10T06:15:44;12.10;99.90
66920;DHT22;53831;52.090;17.026;2023-05-10T06:16:44;12.20;99.90
66920;DHT22;53831;52.090;17.026;2023-05-10T06:17:45;12.20;99.90
66920;DHT22;53831;52.090;17.026;2023-05-10T06:18:47;12.30;99.90
66920;DHT22;53831;52.090;17.026;2023-05-10T06:19:48;12.30;99.90
66920;DHT22;53831;52.090;17.026;2023-05-10T06:20:49;12.40;99.90
66920;DHT22;53831;52.090;17.026;2023-05-10T06:21:49;12.40;99.90
66920;DHT22;53831;52.090;17.026;2023-05-10T06:22:50;12.40;99.90
66920;DHT22;53831;52.090;17.026;2023-05-10T06:23:50;12.50;99.90
66920;DHT22;53831;52.090;17.026;2023-05-10T06:24:51;12.50;99.90
66920;DHT22;53831;52.090;17.026;2023-05-10T06:25:52;12.60;99.90
66920;DHT22;53831;52.090;17.026;2023-05-10T06:26:52;12.70;99.90
66920;DHT22;53831;52.090;17.026;2023-05-10T06:27:53;12.70;99.90
66920;DHT22;53831;52.090;17.026;2023-05-10T06:28:57;12.70;99.90
66920;DHT22;53831;52.090;17.026;2023-05-10T06:29:58;12.80;99.90
66920;DHT22;53831;52.090;17.026;2023-05-10T06:30:58;12.80;99.90
66920;DHT22;53831;52.090;17.026;2023-05-10T06:31:59;12.90;99.90
66920;DHT22;53831;52.090;17.026;2023-05-10T06:33:00;13.00;99.90
66920;DHT22;53831;52.090;17.026;2023-05-10T06:34:00;13.00;99.90
66920;DHT22;53831;52.090;17.026;2023-05-10T06:35:01;13.10;99.90
66920;DHT22;53831;52.090;17.026;2023-05-10T06:36:01;13.20;99.90
66920;DHT22;53831;52.090;17.026;2023-05-10T06:37:02;13.20;99.90
66920;DHT22;53831;52.090;17.026;2023-05-10T06:38:03;13.20;99.90
66920;DHT22;53831;52.090;17.026;2023-05-10T06:39:04;13.30;99.90
66920;DHT22;53831;52.090;17.026;2023-05-10T06:40:05;13.30;99.90
66920;DHT22;53831;52.090;17.026;2023-05-10T06:41:06;13.40;99.90
66920;DHT22;53831;52.090;17.026;2023-05-10T06:42:06;13.40;99.90
66920;DHT22;53831;52.090;17.026;2023-05-10T06:43:07;13.50;99.90
66920;DHT22;53831;52.090;17.026;2023-05-10T06:44:08;13.50;99.90
66920;DHT22;53831;52.090;17.026;2023-05-10T06:45:09;13.60;99.90
66920;DHT22;53831;52.090;17.026;2023-05-10T06:46:10;13.70;99.90